Pagrindinis puslapis
METAR-TAF:

METAR-TAF

Oro uostai :

Stokholmas-Skavsta, Švedija

platuma: 58-47N, ilguma: 016-55E, Aukštis: 43 m

Dabartinis oras

Ataskaita buvo paskelbta 41 minutes, ne 13:20 UTC
Vėjas 7 kt iš Vakarų/Šiaurės Vakarų
Temperatūra 6°C
Drėgmė 65%
Slėgis 1000 hPa
Matomumas 10 km arba daugiau
Su prošvaistėmis ne aukštis 2900 ft

METAR: ESKN 191320Z 29007KT 9999 BKN029 06/00 Q1000 R26/09//95

Laikas: 15:01 (14:01 UTC)

Prognozė

Ataskaita buvo paskelbta 2 valandos ir 31 minutes, ne 11:30 UTC
Prognozė galioja nuo 19 metu 12 UTC su 20 metu 12 UTC
Vėjas 12 kt iš Vakarų
Matomumas 10 km arba daugiau
Su prošvaistėmis ne aukštis 3000 ft
Tapsmas
nuo 20 metu 00 UTC su 20 metu 02 UTC
Vėjas 2 kt nuo kintamojo kryptimis
Tikimybė 40%
nuo 20 metu 02 UTC su 20 metu 06 UTC
Matomumas: 1400 m
Rūkas lopais

TAF: ESKN 191130Z 1912/2012 26012KT 9999 BKN030 BECMG 2000/2002 VRB02KT PROB40 2002/2006 1400 BCFG

Orai ataskaitas ir orų prognozės (METAR, TAF).

turimą stotys yra geltonos ir raudonos taškus žemėlapyje.

Perkelti pele per norėdami pamatyti stoties vardą.

Tada spustelėkite, norėdami matyti oro stebėjimo ir prognozės.

Norėdami pakeisti žemėlapį: spustelėkite ant žalios mygtukų su juodo kryžiaus žemyn,; žalią mygtuką su brūkšneliu, jei norite nutolinti; arba žalių rodyklių gretimoms žemėlapius.


METAR-TAF: